Time;durP1;ratioP1;P1;durP2;ratioP2;P2;SDS_P1;SDS_P2;PMS_P1;PMS_P2;Temp;Humidity;BMP_temperature;BMP_pressure;BME280_temperature;BME280_humidity;BME280_pressure;Samples;Min_cycle;Max_cycle;Signal;HPM_P1;HPM_P2
2023/03/01 00:01:17;;;;;;;13.07;5.13;;;-1.80;99.90;;;;;;4863345;29;20271;-85
2023/03/01 00:03:43;;;;;;;9.93;4.60;;;-1.70;99.90;;;;;;4863289;29;20275;-85
2023/03/01 00:06:09;;;;;;;10.00;5.00;;;-1.80;99.90;;;;;;4879955;29;20177;-86
2023/03/01 00:08:35;;;;;;;10.03;4.70;;;-1.90;99.90;;;;;;4863599;29;20244;-86
2023/03/01 00:11:05;;;;;;;10.87;4.73;;;-1.90;99.90;;;;;;4880684;29;20192;-86
2023/03/01 00:13:31;;;;;;;8.27;4.60;;;-1.90;99.90;;;;;;4866671;29;20215;-85
2023/03/01 00:15:56;;;;;;;6.57;3.97;;;-1.90;99.90;;;;;;4866867;29;20184;-85
2023/03/01 00:18:22;;;;;;;6.73;4.00;;;-1.90;99.90;;;;;;4866805;29;20251;-85
2023/03/01 00:20:55;;;;;;;6.27;3.93;;;-1.90;99.90;;;;;;4866668;29;20187;-85
2023/03/01 00:23:21;;;;;;;8.93;3.87;;;-2.00;99.90;;;;;;4866696;29;20231;-86
2023/03/01 00:25:47;;;;;;;8.40;4.10;;;-2.00;99.90;;;;;;4866361;29;20239;-86
2023/03/01 00:28:13;;;;;;;9.37;3.90;;;-2.10;99.90;;;;;;4866877;29;20270;-85
2023/03/01 00:30:38;;;;;;;9.20;4.63;;;-2.20;99.90;;;;;;4866411;29;20187;-86
2023/03/01 00:33:04;;;;;;;10.53;3.60;;;-2.20;99.90;;;;;;4866383;29;20756;-86
2023/03/01 00:35:33;;;;;;;9.77;4.40;;;-2.20;99.90;;;;;;4883025;29;20569;-85
2023/03/01 00:37:58;;;;;;;9.33;3.90;;;-2.20;99.90;;;;;;4866337;29;20184;-86
2023/03/01 00:40:25;;;;;;;6.77;4.17;;;-2.20;99.90;;;;;;4865797;29;20194;-84
2023/03/01 00:42:51;;;;;;;6.87;3.77;;;-2.20;99.90;;;;;;4866158;29;20224;-85
2023/03/01 00:45:17;;;;;;;11.20;4.43;;;-2.20;99.90;;;;;;4866003;29;20264;-84
2023/03/01 00:47:43;;;;;;;6.43;3.90;;;-2.10;99.90;;;;;;4866253;29;20274;-85
2023/03/01 00:50:11;;;;;;;7.43;4.10;;;-2.10;99.90;;;;;;4865923;29;20187;-84
2023/03/01 00:52:37;;;;;;;8.20;3.93;;;-2.10;99.90;;;;;;4865864;29;20287;-84
2023/03/01 00:55:03;;;;;;;8.17;4.20;;;-2.20;99.90;;;;;;4865873;29;20199;-86
2023/03/01 00:57:29;;;;;;;7.30;4.13;;;-2.30;99.90;;;;;;4865980;29;20183;-85
2023/03/01 00:59:55;;;;;;;5.80;3.60;;;-2.30;99.90;;;;;;4882640;29;20220;-85
2023/03/01 01:02:21;;;;;;;6.07;3.40;;;-2.30;99.90;;;;;;4865824;29;20239;-86
2023/03/01 01:04:47;;;;;;;7.67;3.57;;;-2.30;99.90;;;;;;4865863;29;20192;-84
2023/03/01 01:07:16;;;;;;;8.20;3.80;;;-2.30;99.90;;;;;;4882421;29;20184;-86
2023/03/01 01:09:42;;;;;;;7.37;3.50;;;-2.30;99.90;;;;;;4865301;29;20180;-85
2023/03/01 01:12:08;;;;;;;7.80;3.90;;;-2.40;99.90;;;;;;4865593;29;20616;-85
2023/03/01 01:14:34;;;;;;;5.30;3.40;;;-2.40;99.90;;;;;;4865832;29;20190;-85
2023/03/01 01:17:00;;;;;;;7.13;3.90;;;-2.40;99.90;;;;;;4865660;29;20274;-85
2023/03/01 01:19:27;;;;;;;7.63;3.83;;;-2.40;99.90;;;;;;4865570;29;20215;-84
2023/03/01 01:21:52;;;;;;;8.50;3.90;;;-2.40;99.90;;;;;;4865031;29;20638;-84
2023/03/01 01:24:18;;;;;;;5.00;3.50;;;-2.40;99.90;;;;;;4864945;29;20226;-84
2023/03/01 01:26:46;;;;;;;7.20;4.00;;;-2.40;99.90;;;;;;4865633;29;20614;-84
2023/03/01 01:29:12;;;;;;;6.47;3.80;;;-2.40;99.90;;;;;;4865204;29;20219;-85
2023/03/01 01:31:40;;;;;;;5.80;3.90;;;-2.40;99.90;;;;;;4865336;29;20188;-84
2023/03/01 01:34:08;;;;;;;8.03;3.93;;;-2.40;99.90;;;;;;4865159;29;20642;-84
2023/03/01 01:36:35;;;;;;;7.90;4.30;;;-2.50;99.90;;;;;;4881713;29;20179;-85
2023/03/01 01:39:00;;;;;;;6.77;3.33;;;-2.50;99.90;;;;;;4864789;29;20527;-85
2023/03/01 01:41:28;;;;;;;8.60;3.67;;;-2.40;99.90;;;;;;4864503;29;20194;-85
2023/03/01 01:44:12;;;;;;;6.80;3.30;;;-2.40;99.90;;;;;;4865090;29;20245;-85
2023/03/01 01:46:58;;;;;;;6.77;3.53;;;-2.40;99.90;;;;;;4864704;29;20220;-84
2023/03/01 01:49:45;;;;;;;7.17;3.83;;;-2.50;99.90;;;;;;4864587;29;20179;-85
2023/03/01 01:52:25;;;;;;;5.77;3.90;;;-2.60;99.90;;;;;;4864766;29;20202;-85
2023/03/01 01:54:56;;;;;;;6.17;3.83;;;-2.50;99.90;;;;;;4864351;29;20713;-85
2023/03/01 01:57:34;;;;;;;5.40;3.40;;;-2.60;99.90;;;;;;4864640;29;20234;-84
2023/03/01 02:00:03;;;;;;;10.23;3.77;;;-2.60;99.90;;;;;;4864396;29;20286;-84
2023/03/01 02:02:30;;;;;;;7.53;3.97;;;-2.70;99.90;;;;;;4864490;29;20218;-84
2023/03/01 02:05:15;;;;;;;5.50;3.57;;;-2.70;99.90;;;;;;4864791;29;20191;-85
2023/03/01 02:07:42;;;;;;;7.23;3.70;;;-2.60;99.90;;;;;;4881249;29;20174;-84
2023/03/01 02:10:09;;;;;;;5.17;3.03;;;-2.60;99.90;;;;;;4880711;29;20318;-84
2023/03/01 02:12:36;;;;;;;5.47;3.77;;;-2.70;99.90;;;;;;4864130;29;20520;-84
2023/03/01 02:15:02;;;;;;;5.20;3.60;;;-2.80;99.90;;;;;;4881204;29;20262;-85
2023/03/01 02:17:29;;;;;;;6.50;3.80;;;-2.80;99.90;;;;;;4864595;29;20199;-85
2023/03/01 02:20:18;;;;;;;7.20;4.57;;;-2.90;99.90;;;;;;4864184;29;20227;-85
2023/03/01 02:22:46;;;;;;;7.67;4.03;;;-3.00;99.90;;;;;;4864111;29;20237;-84
2023/03/01 02:25:59;;;;;;;7.77;4.47;;;-3.10;99.90;;;;;;4863874;29;20197;-85
2023/03/01 02:28:33;;;;;;;6.13;3.70;;;-3.20;99.90;;;;;;4843532;29;20201;-84
2023/03/01 02:33:45;;;;;;;6.77;3.70;;;-3.30;99.90;;;;;;4880569;29;20247;-84
2023/03/01 02:36:25;;;;;;;6.80;4.13;;;-3.40;99.90;;;;;;4863714;29;20182;-84
2023/03/01 02:38:55;;;;;;;6.93;4.07;;;-3.50;99.90;;;;;;4880624;29;20170;-84
2023/03/01 02:41:23;;;;;;;6.43;4.30;;;-3.50;99.90;;;;;;4863516;29;20209;-84
2023/03/01 02:43:49;;;;;;;7.07;4.37;;;-3.50;99.90;;;;;;4863940;29;20656;-85
2023/03/01 02:46:18;;;;;;;8.73;3.83;;;-3.50;99.90;;;;;;4863836;29;20182;-84
2023/03/01 02:48:48;;;;;;;6.87;4.40;;;-3.50;99.90;;;;;;4863918;29;20636;-85
2023/03/01 02:51:32;;;;;;;7.03;4.40;;;-3.50;99.90;;;;;;4863744;29;20195;-84
2023/03/01 02:54:15;;;;;;;8.33;4.07;;;-3.40;99.90;;;;;;4863666;29;20519;-84
2023/03/01 02:56:42;;;;;;;6.80;4.07;;;-3.30;99.90;;;;;;4863596;29;20629;-85
2023/03/01 02:59:10;;;;;;;6.87;4.00;;;-3.30;99.90;;;;;;4863425;29;20173;-85
2023/03/01 03:01:38;;;;;;;6.03;4.03;;;-3.30;99.90;;;;;;4863259;29;20330;-84
2023/03/01 03:04:06;;;;;;;6.73;4.20;;;-3.30;99.90;;;;;;4863488;29;20312;-84
2023/03/01 03:06:32;;;;;;;6.83;4.03;;;-3.30;99.90;;;;;;4880225;29;20183;-84
2023/03/01 03:08:57;;;;;;;7.00;4.27;;;-3.20;99.90;;;;;;4863408;29;20183;-83
2023/03/01 03:11:23;;;;;;;6.03;4.13;;;-3.20;99.90;;;;;;4863120;29;20290;-84
2023/03/01 03:13:49;;;;;;;7.20;3.97;;;-3.10;99.90;;;;;;4863417;29;20185;-84
2023/03/01 03:16:15;;;;;;;5.60;3.50;;;-3.10;99.90;;;;;;4863328;29;20190;-84
2023/03/01 03:18:41;;;;;;;5.60;4.03;;;-3.20;99.90;;;;;;4863444;29;20584;-84
2023/03/01 03:21:11;;;;;;;6.13;4.00;;;-3.30;99.90;;;;;;4863071;29;20187;-84
2023/03/01 03:23:37;;;;;;;6.63;4.30;;;-3.30;99.90;;;;;;4863376;29;20562;-84
2023/03/01 03:26:04;;;;;;;7.43;3.70;;;-3.30;99.90;;;;;;4863213;29;20199;-84
2023/03/01 03:28:32;;;;;;;6.23;4.03;;;-3.30;99.90;;;;;;4863423;29;20579;-84
2023/03/01 03:30:58;;;;;;;6.13;4.00;;;-3.30;99.90;;;;;;4879930;29;20270;-84
2023/03/01 03:33:24;;;;;;;6.80;4.10;;;-3.20;99.90;;;;;;4863217;29;20281;-84
2023/03/01 03:35:50;;;;;;;8.70;4.27;;;-3.20;99.90;;;;;;4879813;29;20261;-84
2023/03/01 03:38:19;;;;;;;7.27;4.17;;;-3.20;99.90;;;;;;4863423;29;20610;-84
2023/03/01 03:40:48;;;;;;;6.33;3.80;;;-3.20;99.90;;;;;;4879690;29;20175;-84
2023/03/01 03:43:17;;;;;;;6.97;4.13;;;-3.30;99.90;;;;;;4863318;29;20313;-84
2023/03/01 03:45:45;;;;;;;7.57;4.50;;;-3.20;99.90;;;;;;4863837;29;20567;-84
2023/03/01 03:48:12;;;;;;;9.57;4.57;;;-3.30;99.90;;;;;;4866803;29;20504;-84
2023/03/01 03:50:39;;;;;;;6.50;4.07;;;-3.30;99.90;;;;;;4866806;29;20197;-84
2023/03/01 03:53:08;;;;;;;6.60;4.20;;;-3.30;99.90;;;;;;4866259;29;20183;-84
2023/03/01 03:55:34;;;;;;;7.50;4.00;;;-3.20;99.90;;;;;;4883229;29;20197;-84
2023/03/01 03:58:06;;;;;;;6.10;4.03;;;-3.30;99.90;;;;;;4865844;29;20191;-83
2023/03/01 04:00:37;;;;;;;6.37;4.40;;;-3.30;99.90;;;;;;4866336;29;20195;-83
2023/03/01 04:03:03;;;;;;;7.67;4.30;;;-3.20;99.90;;;;;;4866541;29;20233;-84
2023/03/01 04:05:29;;;;;;;6.60;4.40;;;-3.30;99.90;;;;;;4866541;29;20180;-84
2023/03/01 04:08:02;;;;;;;5.03;3.53;;;-3.20;99.90;;;;;;4883226;29;20183;-84
2023/03/01 04:10:32;;;;;;;8.10;4.20;;;-3.20;99.90;;;;;;4866196;29;20180;-82
2023/03/01 04:12:58;;;;;;;7.30;4.43;;;-3.20;99.90;;;;;;4882801;29;20183;-84
2023/03/01 04:15:25;;;;;;;4.97;3.67;;;-3.20;99.90;;;;;;4866262;29;20191;-83
2023/03/01 04:17:53;;;;;;;8.17;5.07;;;-3.20;99.90;;;;;;4866358;29;20579;-84
2023/03/01 04:20:28;;;;;;;7.40;4.47;;;-3.30;99.90;;;;;;4866298;29;20183;-84
2023/03/01 04:22:58;;;;;;;8.17;4.47;;;-3.30;99.90;;;;;;4865997;29;20222;-84
2023/03/01 04:25:25;;;;;;;5.47;3.83;;;-3.30;99.90;;;;;;4866013;29;20183;-84
2023/03/01 04:27:50;;;;;;;7.47;4.53;;;-3.30;99.90;;;;;;4865762;29;20198;-84
2023/03/01 04:30:16;;;;;;;5.60;3.87;;;-3.30;99.90;;;;;;4882765;29;20178;-84
2023/03/01 04:32:42;;;;;;;7.33;4.70;;;-3.30;99.90;;;;;;4865989;29;20671;-85
2023/03/01 04:35:09;;;;;;;7.97;4.90;;;-3.40;99.90;;;;;;4865869;29;20693;-84
2023/03/01 04:37:34;;;;;;;8.10;4.70;;;-3.40;99.90;;;;;;4866123;29;20196;-85
2023/03/01 04:40:16;;;;;;;5.53;3.93;;;-3.50;99.90;;;;;;4865810;29;20195;-84
2023/03/01 04:42:42;;;;;;;8.37;4.70;;;-3.40;99.90;;;;;;4865598;29;20262;-84
2023/03/01 04:45:12;;;;;;;7.53;4.20;;;-3.40;99.90;;;;;;4866071;29;20222;-84
2023/03/01 04:47:44;;;;;;;7.73;4.37;;;-3.40;99.90;;;;;;4866034;29;20202;-84
2023/03/01 04:50:11;;;;;;;7.13;4.33;;;-3.40;99.90;;;;;;4865727;29;20229;-84
2023/03/01 04:52:37;;;;;;;5.37;3.83;;;-3.50;99.90;;;;;;4882570;29;20189;-84
2023/03/01 04:55:03;;;;;;;7.33;4.67;;;-3.50;99.90;;;;;;4882231;29;20190;-84
2023/03/01 04:57:31;;;;;;;7.57;4.77;;;-3.50;99.90;;;;;;4864269;29;20191;-84
2023/03/01 04:59:56;;;;;;;7.37;4.53;;;-3.40;99.90;;;;;;4865404;29;20638;-84
2023/03/01 05:02:22;;;;;;;7.90;4.17;;;-3.40;99.90;;;;;;4882040;29;20206;-85
2023/03/01 05:04:48;;;;;;;5.30;3.73;;;-3.40;99.90;;;;;;4865436;29;20250;-84
2023/03/01 05:07:19;;;;;;;8.50;4.07;;;-3.40;99.90;;;;;;4865361;29;20178;-84
2023/03/01 05:09:45;;;;;;;8.10;3.90;;;-3.40;99.90;;;;;;4865222;29;20254;-84
2023/03/01 05:12:12;;;;;;;6.23;3.83;;;-3.60;99.90;;;;;;4865253;29;20572;-84
2023/03/01 05:14:38;;;;;;;5.93;3.90;;;-3.60;99.90;;;;;;4865505;29;20187;-84
2023/03/01 05:17:04;;;;;;;5.80;4.17;;;-3.60;99.90;;;;;;4881960;29;20211;-84
2023/03/01 05:19:31;;;;;;;6.37;4.20;;;-3.60;99.90;;;;;;4865090;29;20189;-84
2023/03/01 05:22:06;;;;;;;7.40;4.00;;;-3.90;99.90;;;;;;4864988;29;20203;-84
2023/03/01 05:24:34;;;;;;;7.33;3.73;;;-3.80;99.90;;;;;;4865544;29;20177;-84
2023/03/01 05:27:01;;;;;;;7.10;4.00;;;-3.80;99.90;;;;;;4864754;29;20249;-85
2023/03/01 05:29:28;;;;;;;7.03;4.53;;;-3.80;99.90;;;;;;4864076;29;20244;-85
2023/03/01 05:31:57;;;;;;;6.13;4.13;;;-3.70;99.90;;;;;;4865132;29;20523;-84
2023/03/01 05:34:29;;;;;;;7.27;3.93;;;-3.80;99.90;;;;;;4865199;29;20573;-85
2023/03/01 05:36:55;;;;;;;6.77;3.97;;;-3.80;99.90;;;;;;4865212;29;20634;-84
2023/03/01 05:39:25;;;;;;;5.93;4.07;;;-3.80;99.90;;;;;;4864982;29;20687;-84
2023/03/01 05:41:59;;;;;;;6.50;3.93;;;-3.80;99.90;;;;;;4865164;29;20187;-85
2023/03/01 05:44:26;;;;;;;8.20;4.20;;;-3.80;99.90;;;;;;4864755;29;20633;-84
2023/03/01 05:46:52;;;;;;;6.20;4.00;;;-3.80;99.90;;;;;;4864887;29;20614;-85
2023/03/01 05:49:18;;;;;;;6.97;4.27;;;-3.80;99.90;;;;;;4863538;29;20278;-85
2023/03/01 05:51:48;;;;;;;6.23;3.67;;;-3.90;99.90;;;;;;4864710;29;20196;-85
2023/03/01 05:54:14;;;;;;;5.73;3.70;;;-4.00;99.90;;;;;;4881485;29;20166;-85
2023/03/01 05:56:40;;;;;;;7.33;3.90;;;-4.10;99.90;;;;;;4864107;29;20252;-84
2023/03/01 05:59:06;;;;;;;5.63;3.93;;;-4.20;99.90;;;;;;4864726;29;20677;-84
2023/03/01 06:01:32;;;;;;;6.80;4.33;;;-4.20;99.90;;;;;;4864317;29;20185;-84
2023/03/01 06:03:58;;;;;;;8.60;4.63;;;-4.20;99.90;;;;;;4864294;29;20274;-84
2023/03/01 06:06:24;;;;;;;7.07;4.10;;;-4.30;99.90;;;;;;4864585;29;21062;-84
2023/03/01 06:08:51;;;;;;;6.00;4.00;;;-4.20;99.90;;;;;;4864470;29;20193;-84
2023/03/01 06:11:17;;;;;;;5.87;3.50;;;-4.20;99.90;;;;;;4880861;29;20264;-84
2023/03/01 06:13:43;;;;;;;7.93;4.20;;;-4.20;99.90;;;;;;4864377;29;20653;-84
2023/03/01 06:16:10;;;;;;;6.20;4.40;;;-4.30;99.90;;;;;;4881065;29;20233;-85
2023/03/01 06:18:37;;;;;;;7.70;3.97;;;-4.20;99.90;;;;;;4864015;29;20208;-84
2023/03/01 06:21:05;;;;;;;6.00;3.80;;;-4.30;99.90;;;;;;4863991;29;20189;-85
2023/03/01 06:23:31;;;;;;;5.40;3.87;;;-4.30;99.90;;;;;;4863963;29;20215;-83
2023/03/01 06:25:57;;;;;;;9.90;4.13;;;-4.20;99.90;;;;;;4864167;29;20182;-85
2023/03/01 06:28:22;;;;;;;6.93;4.13;;;-4.30;99.90;;;;;;4864309;29;20262;-84
2023/03/01 06:30:49;;;;;;;6.50;4.00;;;-4.30;99.90;;;;;;4864014;29;20273;-84
2023/03/01 06:33:15;;;;;;;5.43;3.70;;;-4.30;99.90;;;;;;4864098;29;20186;-84
2023/03/01 06:35:41;;;;;;;6.87;4.30;;;-4.20;99.90;;;;;;4880385;29;20247;-84
2023/03/01 06:38:07;;;;;;;6.20;4.47;;;-4.20;99.90;;;;;;4863032;29;20193;-84
2023/03/01 06:40:35;;;;;;;8.40;4.70;;;-4.30;99.90;;;;;;4863908;29;20232;-83
2023/03/01 06:43:01;;;;;;;8.50;4.93;;;-4.20;99.90;;;;;;4863045;29;20226;-84
2023/03/01 06:45:27;;;;;;;8.20;4.30;;;-4.10;99.90;;;;;;4880366;29;20263;-84
2023/03/01 06:47:52;;;;;;;7.80;4.83;;;-4.00;99.90;;;;;;4863921;29;20269;-84
2023/03/01 06:50:20;;;;;;;8.87;5.60;;;-4.00;99.90;;;;;;4862676;29;20189;-85
2023/03/01 06:52:46;;;;;;;9.60;5.90;;;-4.00;99.90;;;;;;4863675;29;20618;-84
2023/03/01 06:55:13;;;;;;;11.07;5.57;;;-4.00;99.90;;;;;;4879433;29;20185;-84
2023/03/01 06:57:38;;;;;;;9.87;5.57;;;-3.90;99.90;;;;;;4862974;29;20184;-84
2023/03/01 07:00:05;;;;;;;9.03;5.30;;;-3.90;99.90;;;;;;4863600;29;20648;-84
2023/03/01 07:02:31;;;;;;;7.67;4.77;;;-3.80;99.90;;;;;;4862467;29;20213;-84
2023/03/01 07:04:57;;;;;;;9.50;5.53;;;-3.70;99.90;;;;;;4863721;29;20177;-85
2023/03/01 07:07:23;;;;;;;9.07;4.80;;;-3.60;99.90;;;;;;4862652;29;20193;-84
2023/03/01 07:09:49;;;;;;;8.27;5.03;;;-3.50;99.90;;;;;;4863534;29;20522;-83
2023/03/01 07:12:15;;;;;;;8.90;4.90;;;-3.30;99.90;;;;;;4862536;29;20185;-83
2023/03/01 07:14:43;;;;;;;8.10;4.97;;;-3.30;99.90;;;;;;4880236;29;20190;-84
2023/03/01 07:17:09;;;;;;;9.07;4.83;;;-3.10;99.90;;;;;;4863397;29;20181;-84
2023/03/01 07:19:34;;;;;;;7.63;4.73;;;-3.00;99.90;;;;;;4862652;29;20299;-83
2023/03/01 07:22:00;;;;;;;9.87;4.53;;;-2.90;99.90;;;;;;4868780;29;20196;-84
2023/03/01 07:24:26;;;;;;;8.57;5.27;;;-2.80;99.90;;;;;;4885403;29;20205;-84
2023/03/01 07:26:53;;;;;;;8.97;4.93;;;-2.70;99.90;;;;;;4886316;29;20175;-84
2023/03/01 07:29:19;;;;;;;6.90;4.67;;;-2.60;99.90;;;;;;4868562;29;20242;-84
2023/03/01 07:31:44;;;;;;;8.83;4.50;;;-2.50;99.90;;;;;;4869778;29;20265;-84
2023/03/01 07:34:10;;;;;;;7.30;4.97;;;-2.40;99.90;;;;;;4869130;29;20248;-84
2023/03/01 07:36:36;;;;;;;6.63;4.80;;;-2.30;99.90;;;;;;4868767;29;20203;-83
2023/03/01 07:39:05;;;;;;;8.73;5.33;;;-2.20;99.90;;;;;;4886172;29;20215;-82
2023/03/01 07:41:31;;;;;;;8.97;5.47;;;-2.10;99.90;;;;;;4868614;29;21635;-84
2023/03/01 07:43:57;;;;;;;9.77;5.60;;;-2.10;99.90;;;;;;4869291;29;20659;-83
2023/03/01 07:46:22;;;;;;;10.93;5.67;;;-2.00;99.90;;;;;;4869418;29;20282;-83
2023/03/01 07:48:48;;;;;;;11.17;5.83;;;-1.90;99.90;;;;;;4885430;29;20234;-84
2023/03/01 07:51:14;;;;;;;11.53;6.30;;;-1.80;99.90;;;;;;4869085;29;20217;-83
2023/03/01 07:53:39;;;;;;;10.97;5.97;;;-1.80;99.90;;;;;;4868833;29;20221;-82
2023/03/01 07:56:10;;;;;;;10.10;6.90;;;-1.60;99.90;;;;;;4885613;29;20216;-82
2023/03/01 07:58:38;;;;;;;13.57;8.07;;;-1.60;99.90;;;;;;4885882;29;20184;-82
2023/03/01 08:01:06;;;;;;;11.60;6.83;;;-1.50;99.90;;;;;;4885872;29;20195;-83
2023/03/01 08:03:32;;;;;;;12.10;7.00;;;-1.40;99.90;;;;;;4869087;29;20686;-81
2023/03/01 08:06:02;;;;;;;10.33;6.43;;;-1.40;99.90;;;;;;4885688;29;20179;-82
2023/03/01 08:08:28;;;;;;;13.33;7.10;;;-1.30;99.90;;;;;;4869044;29;20221;-80
2023/03/01 08:10:57;;;;;;;9.73;6.30;;;-1.30;99.90;;;;;;4885548;29;20184;-82
2023/03/01 08:13:22;;;;;;;8.87;5.57;;;-1.20;99.90;;;;;;4868758;29;20577;-81
2023/03/01 08:15:49;;;;;;;11.13;6.00;;;-1.20;99.90;;;;;;4869105;29;20274;-82
2023/03/01 08:18:15;;;;;;;13.47;6.33;;;-1.20;99.90;;;;;;4868878;29;20183;-82
2023/03/01 08:20:41;;;;;;;10.33;6.53;;;-1.10;99.90;;;;;;4885501;29;20191;-82
2023/03/01 08:23:06;;;;;;;11.17;6.30;;;-1.00;99.90;;;;;;4885555;29;20204;-82
2023/03/01 08:25:32;;;;;;;10.80;6.87;;;-1.00;99.90;;;;;;4885506;29;20176;-82
2023/03/01 08:27:58;;;;;;;9.53;6.13;;;-0.80;99.90;;;;;;4867748;29;20636;-81
2023/03/01 08:30:23;;;;;;;8.97;5.93;;;-0.80;99.90;;;;;;4868792;29;20636;-82
2023/03/01 08:32:49;;;;;;;8.37;5.97;;;-0.80;99.90;;;;;;4883498;29;20514;-81
2023/03/01 08:35:16;;;;;;;11.43;5.67;;;-0.70;99.90;;;;;;4865597;29;20575;-82
2023/03/01 08:37:41;;;;;;;9.13;5.70;;;-0.60;99.90;;;;;;4865760;29;20203;-82
2023/03/01 08:40:09;;;;;;;12.30;6.77;;;-0.50;99.90;;;;;;4865635;29;20527;-82
2023/03/01 08:42:36;;;;;;;11.27;5.97;;;-0.30;99.90;;;;;;4865780;29;20204;-82
2023/03/01 08:45:03;;;;;;;12.87;6.43;;;-0.30;99.90;;;;;;4865411;29;20643;-82
2023/03/01 08:47:29;;;;;;;11.57;6.17;;;-0.10;99.90;;;;;;4881238;29;20184;-82
2023/03/01 08:49:55;;;;;;;11.67;6.37;;;0.00;99.90;;;;;;4865457;29;20184;-81
2023/03/01 08:52:21;;;;;;;6.87;5.13;;;0.20;99.90;;;;;;4865095;29;20184;-83
2023/03/01 08:54:50;;;;;;;7.97;5.27;;;0.30;99.90;;;;;;4865726;29;20212;-89
2023/03/01 08:57:19;;;;;;;10.03;6.03;;;0.40;99.90;;;;;;4883239;29;20246;-87
2023/03/01 08:59:45;;;;;;;16.10;7.67;;;0.60;99.90;;;;;;4865162;29;20192;-88
2023/03/01 09:02:17;;;;;;;8.43;5.23;;;0.70;99.90;;;;;;4881629;29;20219;-82
2023/03/01 09:04:43;;;;;;;11.60;5.60;;;0.90;99.90;;;;;;4882336;29;20182;-84
2023/03/01 09:07:09;;;;;;;8.93;5.23;;;1.10;99.90;;;;;;4864860;29;20214;-83
2023/03/01 09:09:34;;;;;;;10.73;6.13;;;1.20;99.90;;;;;;4881844;29;20659;-82
2023/03/01 09:12:01;;;;;;;11.97;5.60;;;1.30;99.90;;;;;;4864659;29;20518;-83
2023/03/01 09:14:26;;;;;;;11.87;5.63;;;1.40;99.90;;;;;;4881610;29;20188;-82
2023/03/01 09:16:52;;;;;;;12.23;5.93;;;1.60;99.90;;;;;;4864391;29;20192;-83
2023/03/01 09:19:18;;;;;;;9.67;5.07;;;1.70;99.90;;;;;;4864624;29;20195;-82
2023/03/01 09:21:52;;;;;;;10.43;7.03;;;1.80;99.90;;;;;;4880689;29;20247;-82
2023/03/01 09:24:22;;;;;;;8.50;5.07;;;1.80;99.90;;;;;;4881507;29;20251;-85
2023/03/01 09:26:48;;;;;;;8.37;4.70;;;1.90;99.90;;;;;;4880736;29;20672;-82
2023/03/01 09:29:15;;;;;;;9.37;5.10;;;2.00;99.90;;;;;;4881166;29;20203;-82
2023/03/01 09:31:41;;;;;;;10.37;5.10;;;2.00;99.90;;;;;;4864423;29;20184;-82
2023/03/01 09:34:07;;;;;;;7.37;4.00;;;2.10;99.90;;;;;;4879742;29;20243;-82
2023/03/01 09:36:33;;;;;;;9.37;4.43;;;2.20;99.90;;;;;;4880846;29;20200;-82
2023/03/01 09:39:00;;;;;;;8.93;4.00;;;2.30;99.90;;;;;;4864152;29;20188;-83
2023/03/01 09:41:38;;;;;;;8.53;4.20;;;2.40;99.90;;;;;;4864463;29;20190;-82
2023/03/01 09:44:13;;;;;;;7.30;3.60;;;2.50;99.90;;;;;;4863911;29;20223;-83
2023/03/01 09:46:43;;;;;;;9.53;4.33;;;2.50;99.90;;;;;;4863931;29;20262;-83
2023/03/01 09:49:22;;;;;;;6.90;3.33;;;2.70;99.90;;;;;;4880646;29;20256;-84
2023/03/01 09:52:00;;;;;;;7.27;3.53;;;2.90;99.90;;;;;;4880507;29;20286;-84
2023/03/01 09:54:26;;;;;;;6.77;3.67;;;2.90;99.90;;;;;;4880791;29;20190;-83
2023/03/01 09:56:56;;;;;;;6.27;3.17;;;3.00;99.90;;;;;;4863704;29;20184;-84
2023/03/01 09:59:25;;;;;;;7.20;3.70;;;3.10;99.90;;;;;;4864255;29;20358;-85
2023/03/01 10:02:16;;;;;;;5.73;3.47;;;3.20;99.90;;;;;;4864330;29;20191;-85
2023/03/01 10:04:52;;;;;;;5.67;3.50;;;3.40;99.90;;;;;;4863263;29;20194;-85
2023/03/01 10:07:48;;;;;;;5.90;3.10;;;3.40;99.90;;;;;;4864381;29;20184;-85
2023/03/01 10:10:34;;;;;;;4.07;2.70;;;3.50;99.90;;;;;;4864285;29;20188;-83
2023/03/01 10:13:19;;;;;;;6.27;3.03;;;3.50;99.90;;;;;;4863864;29;20180;-84
2023/03/01 10:16:03;;;;;;;8.20;3.93;;;3.60;99.90;;;;;;4863866;29;20187;-85
2023/03/01 10:18:33;;;;;;;4.67;3.03;;;3.60;99.90;;;;;;4863997;29;20654;-85
2023/03/01 10:21:12;;;;;;;4.30;2.60;;;3.60;99.90;;;;;;4864345;29;20194;-84
2023/03/01 10:23:38;;;;;;;9.07;4.73;;;3.70;99.90;;;;;;4864401;29;20223;-85
2023/03/01 10:26:57;;;;;;;4.60;3.00;;;3.80;99.90;;;;;;4864419;29;20176;-84
2023/03/01 10:29:34;;;;;;;5.00;3.00;;;3.90;99.90;;;;;;4844897;29;20185;-84
2023/03/01 10:32:06;;;;;;;5.63;2.87;;;3.90;99.90;;;;;;4861619;29;20188;-84
2023/03/01 10:34:34;;;;;;;5.67;2.97;;;4.00;99.90;;;;;;4860663;29;20603;-84
2023/03/01 10:37:19;;;;;;;6.57;3.90;;;4.00;99.90;;;;;;4862269;29;20621;-84
2023/03/01 10:39:59;;;;;;;3.93;2.57;;;4.00;99.90;;;;;;4845391;29;20180;-85
2023/03/01 10:42:31;;;;;;;7.40;3.00;;;4.10;99.90;;;;;;4862049;29;20263;-85
2023/03/01 10:44:57;;;;;;;4.70;2.50;;;4.20;99.90;;;;;;4861001;29;20191;-85
2023/03/01 10:47:26;;;;;;;7.77;2.47;;;4.20;99.90;;;;;;4845459;29;20276;-85
2023/03/01 10:49:59;;;;;;;2.73;2.00;;;4.30;99.90;;;;;;4844901;29;20195;-84
2023/03/01 10:52:29;;;;;;;3.63;2.57;;;4.20;99.90;;;;;;4844957;29;20180;-84
2023/03/01 10:55:23;;;;;;;3.97;2.40;;;4.30;99.90;;;;;;4861780;29;20199;-84
2023/03/01 10:57:48;;;;;;;3.37;2.37;;;4.30;99.90;;;;;;4863444;29;20690;-84
2023/03/01 11:00:22;;;;;;;7.57;2.97;;;4.40;99.90;;;;;;4862504;29;20188;-84
2023/03/01 11:03:03;;;;;;;3.93;2.23;;;4.40;99.90;;;;;;4854937;29;20724;-84
2023/03/01 11:05:30;;;;;;;5.03;2.57;;;4.40;99.50;;;;;;4863409;29;20192;-84
2023/03/01 11:07:56;;;;;;;4.20;2.50;;;4.50;99.90;;;;;;4863676;29;20191;-84
2023/03/01 11:10:29;;;;;;;5.70;2.30;;;4.60;99.30;;;;;;4878764;29;20578;-84
2023/03/01 11:13:08;;;;;;;8.30;2.03;;;4.70;99.20;;;;;;4878997;29;20179;-82
2023/03/01 11:15:34;;;;;;;4.43;2.07;;;4.80;99.30;;;;;;4863332;29;20180;-83
2023/03/01 11:18:00;;;;;;;4.03;1.97;;;4.90;98.10;;;;;;4879974;29;20515;-84
2023/03/01 11:20:35;;;;;;;3.60;2.20;;;4.90;98.10;;;;;;4879372;29;20256;-83
2023/03/01 11:23:11;;;;;;;6.63;2.27;;;5.10;98.20;;;;;;4878771;29;20726;-83
2023/03/01 11:25:58;;;;;;;4.87;2.33;;;5.10;98.10;;;;;;4863230;29;20616;-83
2023/03/01 11:28:27;;;;;;;5.03;2.43;;;5.10;97.70;;;;;;4863547;29;20250;-83
2023/03/01 11:31:19;;;;;;;3.67;2.20;;;5.10;98.00;;;;;;4863046;29;20323;-83
2023/03/01 11:33:54;;;;;;;4.80;2.50;;;5.30;97.30;;;;;;4877655;29;20274;-83
2023/03/01 11:36:31;;;;;;;4.70;2.40;;;5.30;96.90;;;;;;4863105;29;20236;-83
2023/03/01 11:39:02;;;;;;;3.50;2.13;;;5.40;95.70;;;;;;4863025;29;20179;-83
2023/03/01 11:41:32;;;;;;;4.10;2.03;;;5.40;95.40;;;;;;4879755;29;20199;-84
2023/03/01 11:44:24;;;;;;;7.33;2.33;;;5.40;95.00;;;;;;4862884;29;20224;-83
2023/03/01 11:47:13;;;;;;;4.60;1.70;;;5.40;94.60;;;;;;4863154;29;20183;-83
2023/03/01 11:49:57;;;;;;;3.30;2.00;;;5.50;94.20;;;;;;4879380;29;20231;-82
2023/03/01 11:52:26;;;;;;;5.57;2.10;;;5.50;95.40;;;;;;4879360;29;20236;-82
2023/03/01 11:55:29;;;;;;;3.37;2.03;;;5.50;95.40;;;;;;4863121;29;20176;-83
2023/03/01 11:58:27;;;;;;;3.07;2.00;;;5.60;95.30;;;;;;4862637;29;20500;-84
2023/03/01 12:01:14;;;;;;;4.47;2.23;;;5.70;96.60;;;;;;4862856;29;20604;-83
2023/03/01 12:04:25;;;;;;;3.53;2.07;;;5.70;94.20;;;;;;4862674;29;20718;-82
2023/03/01 12:07:14;;;;;;;3.90;2.37;;;5.80;94.30;;;;;;4844289;29;20199;-83
2023/03/01 12:10:12;;;;;;;4.73;1.77;;;5.90;95.00;;;;;;4866232;29;20232;-83
2023/03/01 12:13:18;;;;;;;3.40;2.00;;;6.00;94.70;;;;;;4883189;29;20176;-82
2023/03/01 12:16:12;;;;;;;2.70;2.00;;;6.00;94.40;;;;;;4881754;29;20187;-82
2023/03/01 12:19:48;;;;;;;3.57;2.10;;;6.00;94.30;;;;;;4882940;29;20177;-83
2023/03/01 12:22:36;;;;;;;3.33;2.00;;;6.00;94.00;;;;;;4804785;29;20688;-83
2023/03/01 12:25:37;;;;;;;4.27;2.20;;;6.00;94.50;;;;;;4810272;29;20196;-83
2023/03/01 12:28:36;;;;;;;5.93;2.50;;;6.20;94.40;;;;;;4813184;29;20196;-83
2023/03/01 12:31:07;;;;;;;2.50;1.90;;;6.30;94.40;;;;;;4865579;29;20235;-83
2023/03/01 12:34:26;;;;;;;2.07;1.83;;;6.30;93.40;;;;;;4865936;29;20200;-83
2023/03/01 12:37:29;;;;;;;4.60;1.97;;;6.30;92.90;;;;;;4830027;29;20196;-83
2023/03/01 12:40:23;;;;;;;3.23;2.07;;;6.30;93.30;;;;;;4865776;29;20176;-83
2023/03/01 12:43:16;;;;;;;2.60;1.93;;;6.40;94.30;;;;;;4882474;29;20227;-83
2023/03/01 12:46:00;;;;;;;5.37;2.30;;;6.30;92.50;;;;;;4865445;29;20184;-83
2023/03/01 12:48:54;;;;;;;3.87;2.43;;;6.30;92.00;;;;;;4882476;29;20267;-83
2023/03/01 12:51:28;;;;;;;5.20;2.40;;;6.40;93.30;;;;;;4865170;29;20183;-83
2023/03/01 12:53:58;;;;;;;34.33;15.60;;;6.60;93.10;;;;;;4865316;29;20589;-83
2023/03/01 12:56:29;;;;;;;7.77;3.43;;;6.60;92.50;;;;;;4865415;29;20212;-83
2023/03/01 12:59:14;;;;;;;2.80;1.80;;;6.60;91.10;;;;;;4855107;29;20644;-83
2023/03/01 13:01:51;;;;;;;5.47;3.27;;;6.80;91.60;;;;;;4881696;29;20270;-82
2023/03/01 13:04:50;;;;;;;5.23;3.00;;;6.70;91.60;;;;;;4865189;29;20279;-83
2023/03/01 13:07:30;;;;;;;3.63;2.30;;;6.50;91.10;;;;;;4865303;29;20211;-83
2023/03/01 13:10:26;;;;;;;7.87;3.83;;;6.50;91.70;;;;;;4865046;29;20192;-83
2023/03/01 13:13:11;;;;;;;14.67;7.17;;;6.60;90.80;;;;;;4864796;29;20184;-83